Latest Weather Observations for Larapuna (Eddystone Point)

IDT60801

Issued at 6:32 am EDT Thursday 23 February 2017 (issued every 30 minutes, with the page automatically refreshed every 10 minutes)

About weather observations | Map of weather stations | Latest weather observations for TAS | Other Formats
Station Details ID: 092045 Name: LARAPUNA (EDDYSTONE POINT) Lat: -40.99 Lon: 148.35 Height: 19.7 m
Data from the previous 72 hours. | See also: Recent months at Larapuna (Eddystone Point)
Date/Time
EDT
Temp
°C
App
Temp
°C
Dew
Point
°C
Rel
Hum
%
Delta-T
°C
Wind Press
QNH
hPa
Press
MSL
hPa
Rain since
9am
mm
Dir  Spd
km/h
Gust
km/h
Spd
kts
Gust
kts
23/06:30am 17.4 14.1 14.1 81 1.9 WNW 24 44 13 24 1009.5 1009.5 0.2
23/06:00am 17.5 14.2 15.1 86 1.4 NW 26 35 14 19 1009.1 1009.1 0.2
23/05:30am 17.9 15.0 16.1 89 1.1 NNW 26 32 14 17 1009.0 1009.0 0.2
23/05:00am 18.5 15.8 16.7 89 1.1 NNW 26 32 14 17 1008.9 1008.9 0.2
23/04:30am 18.3 16.9 16.6 90 1.0 N 19 22 10 12 1008.7 1008.7 0.2
23/04:00am 19.2 16.9 17.5 90 1.0 NNW 26 39 14 21 1009.0 1009.0 0.2
23/03:33am 19.4 14.9 18.2 93 0.7 NNW 39 65 21 35 1008.9 1008.9 0.2
23/03:31am 19.2 15.4 18.0 93 0.7 NNW 35 61 19 33 1009.3 1009.3 0.2
23/03:30am 19.2 15.4 18.0 93 0.7 NNW 35 52 19 28 1008.8 1008.8 0.2
23/03:18am 19.1 16.5 17.9 93 0.7 N 28 43 15 23 1008.1 1008.1 0.2
23/03:00am 19.0 18.1 17.8 93 0.7 NNW 19 24 10 13 1008.3 1008.3 0.2
23/02:30am 19.1 16.6 18.1 94 0.6 N 28 33 15 18 1008.6 1008.6 0.2
23/02:00am 18.8 16.2 17.8 94 0.6 N 28 33 15 18 1009.1 1009.1 0.2
23/01:30am 18.8 17.9 17.8 94 0.6 N 19 26 10 14 1009.8 1009.8 0.2
23/01:00am 18.5 18.6 17.5 94 0.6 N 13 19 7 10 1010.6 1010.6 0.2
23/12:30am 18.3 17.7 17.5 95 0.5 N 17 20 9 11 1010.9 1010.9 0.2
23/12:00am 17.8 17.6 16.8 94 0.6 NNE 13 15 7 8 1011.5 1011.5 0.2
 
Date/Time
EDT
Temp
°C
App
Temp
°C
Dew
Point
°C
Rel
Hum
%
Delta-T
°C
Wind Press
QNH
hPa
Press
MSL
hPa
Rain since
9am
mm
Dir  Spd
km/h
Gust
km/h
Spd
kts
Gust
kts
22/11:30pm 17.7 16.7 16.7 94 0.6 NNE 17 19 9 10 1012.0 1012.0 0.2
22/11:00pm 17.8 16.3 16.8 94 0.6 N 20 22 11 12 1012.5 1012.5 0.2
22/10:30pm 17.8 16.3 16.8 94 0.6 NNE 20 22 11 12 1012.8 1012.8 0.2
22/10:00pm 17.9 16.6 16.9 94 0.6 N 19 22 10 12 1013.0 1013.0 0.2
22/09:30pm 17.9 17.0 16.8 93 0.7 NNE 17 19 9 10 1013.0 1013.0 0.2
22/09:00pm 18.2 18.1 17.0 93 0.7 N 13 15 7 8 1013.0 1013.0 0.2
22/08:30pm 18.7 19.2 17.4 92 0.8 N 11 17 6 9 1013.1 1013.1 0.2
22/08:00pm 18.7 17.9 17.2 91 0.9 NNE 17 19 9 10 1012.8 1012.8 0.2
22/07:30pm 19.1 18.3 17.2 89 1.2 NE 17 19 9 10 1012.6 1012.6 0.2
22/07:00pm 19.4 18.9 17.0 86 1.5 NE 15 17 8 9 1012.6 1012.6 0.2
22/06:30pm 19.7 20.0 16.9 84 1.7 NE 11 13 6 7 1013.1 1013.1 0.2
22/06:00pm 20.0 20.8 17.2 84 1.7 NNE 9 11 5 6 1013.7 1013.7 0.2
22/05:30pm 20.3 20.2 16.9 81 2.1 NE 13 15 7 8 1013.5 1013.5 0.2
22/05:00pm 19.9 19.2 16.5 81 2.0 NNE 15 15 8 8 1014.1 1014.1 0.2
22/04:30pm 20.2 19.4 16.2 78 2.4 NNE 15 19 8 10 1014.8 1014.8 0.2
22/04:00pm 20.3 18.8 16.3 78 2.4 NNE 19 20 10 11 1014.9 1014.9 0.2
22/03:30pm 19.4 17.6 16.1 81 2.0 NNE 20 24 11 13 1015.5 1015.5 0.2
22/03:00pm 19.7 17.5 16.0 79 2.2 NNE 22 24 12 13 1015.9 1015.9 0.2
22/02:30pm 20.4 17.8 15.8 75 2.7 NNE 24 26 13 14 1016.2 1016.2 0.2
22/02:00pm 20.6 17.9 15.6 73 3.0 NNE 24 30 13 16 1016.7 1016.7 0.2
22/01:30pm 20.8 19.8 14.5 67 3.7 N 13 15 7 8 1017.0 1017.0 0.2
22/01:00pm 20.9 19.7 14.1 65 3.9 N 13 15 7 8 1017.2 1017.2 0.2
22/12:30pm 21.1 20.2 13.8 63 4.2 NNW 11 15 6 8 1017.6 1017.6 0.2
22/12:00pm 19.9 18.7 12.9 64 4.0 NW 11 17 6 9 1018.0 1018.0 0.2
22/11:30am 19.7 18.7 13.4 67 3.6 N 11 13 6 7 1018.2 1018.2 0.2
22/11:00am 18.9 17.6 12.4 66 3.6 N 11 13 6 7 1018.4 1018.4 0.2
22/10:30am 18.5 16.7 12.0 66 3.6 N 13 15 7 8 1018.7 1018.7 0.0
22/10:00am 18.3 16.6 12.3 68 3.3 NNW 13 17 7 9 1018.9 1018.9 0.0
22/09:30am 17.4 15.7 12.5 73 2.7 NNW 13 17 7 9 1018.8 1018.8 0.0
22/09:00am 15.9 14.2 12.5 80 1.9 NNW 13 15 7 8 1019.0 1019.0 0.0
22/08:30am 14.8 13.9 12.7 87 1.2 NW 9 13 5 7 1018.8 1018.8 0.0
22/08:00am 13.7 12.2 11.9 89 1.0 NW 11 13 6 7 1018.8 1018.8 0.0
22/07:30am 13.4 12.2 11.6 89 1.0 NW 9 13 5 7 1018.7 1018.7 0.0
22/07:00am 12.5 10.4 11.1 91 0.7 NW 13 13 7 7 1018.8 1018.8 0.0
22/06:30am 12.1 9.9 10.7 91 0.7 NW 13 15 7 8 1018.6 1018.6 0.0
22/06:00am 12.1 9.9 10.8 92 0.7 NW 13 15 7 8 1018.5 1018.5 0.0
22/05:30am 12.3 10.2 11.0 92 0.7 NW 13 15 7 8 1018.5 1018.5 0.0
22/05:00am 12.2 10.0 10.8 91 0.7 NW 13 15 7 8 1018.6 1018.6 0.0
22/04:30am 12.3 10.5 10.9 91 0.7 NW 11 13 6 7 1018.8 1018.8 0.0
22/04:00am 12.4 10.6 11.0 91 0.7 NNW 11 13 6 7 1018.9 1018.9 0.0
22/03:30am 12.7 11.4 11.1 90 0.8 NW 9 11 5 6 1018.9 1018.9 0.0
22/03:00am 12.7 10.9 10.9 89 0.9 NW 11 13 6 7 1019.1 1019.1 0.0
22/02:30am 12.6 10.5 11.0 90 0.8 NW 13 15 7 8 1019.4 1019.4 0.0
22/02:00am 12.7 9.8 10.9 89 0.9 WNW 17 20 9 11 1019.5 1019.5 0.0
22/01:30am 12.5 9.6 10.9 90 0.8 WNW 17 19 9 10 1019.5 1019.5 0.0
22/01:00am 12.6 10.8 10.8 89 0.9 NW 11 13 6 7 1019.7 1019.7 0.0
22/12:30am 12.7 10.9 10.9 89 0.9 NW 11 13 6 7 1019.8 1019.8 0.0
22/12:00am 12.8 10.6 10.9 88 1.0 NW 13 17 7 9 1020.0 1020.0 0.0
 
Date/Time
EDT
Temp
°C
App
Temp
°C
Dew
Point
°C
Rel
Hum
%
Delta-T
°C
Wind Press
QNH
hPa
Press
MSL
hPa
Rain since
9am
mm
Dir  Spd
km/h
Gust
km/h
Spd
kts
Gust
kts
21/11:30pm 13.0 11.3 11.1 88 1.0 NW 11 13 6 7 1019.9 1019.9 0.0
21/11:00pm 13.5 11.9 11.4 87 1.1 NW 11 13 6 7 1020.0 1020.0 0.0
21/10:30pm 13.8 11.7 11.3 85 1.3 NW 13 15 7 8 1020.0 1020.0 0.0
21/10:00pm 14.1 11.7 11.3 83 1.5 NW 15 17 8 9 1020.0 1020.0 0.0
21/09:30pm 14.3 12.1 10.9 80 1.8 NW 13 15 7 8 1019.7 1019.7 0.0
21/09:00pm 14.9 12.2 10.5 75 2.3 NW 15 19 8 10 1019.6 1019.6 0.0
21/08:30pm 15.6 13.0 10.6 72 2.6 NW 15 19 8 10 1019.1 1019.1 0.0
21/08:00pm 16.3 12.7 9.9 66 3.3 NW 19 24 10 13 1018.8 1018.8 0.0
21/07:30pm 17.4 13.6 9.1 58 4.3 NW 19 20 10 11 1018.4 1018.4 0.0
21/07:00pm 18.2 14.7 8.7 54 4.9 NW 17 20 9 11 1018.1 1018.1 0.0
21/06:30pm 18.8 15.3 8.7 52 5.3 NNW 17 24 9 13 1017.9 1017.9 0.0
21/06:00pm 19.5 15.2 9.4 52 5.3 NW 22 30 12 16 1017.5 1017.5 0.0
21/05:30pm 18.0 13.4 12.2 69 3.2 N 28 43 15 23 1017.5 1017.5 0.0
21/05:00pm 18.7 13.5 12.7 68 3.4 N 32 41 17 22 1017.2 1017.2 0.0
21/04:30pm 19.0 15.2 12.5 66 3.6 N 24 32 13 17 1017.4 1017.4 0.0
21/04:00pm 19.6 17.3 13.1 66 3.7 N 17 22 9 12 1017.5 1017.5 0.0
21/03:30pm 20.1 15.6 12.6 62 4.2 NE 28 32 15 17 1017.6 1017.6 0.0
21/03:00pm 19.2 14.8 11.7 62 4.1 NE 26 30 14 16 1017.8 1017.8 0.0
21/02:30pm 19.9 16.7 11.9 60 4.4 NE 20 26 11 14 1017.9 1017.9 0.0
21/02:00pm 20.4 17.2 11.1 55 5.1 NE 19 22 10 12 1018.1 1018.1 0.0
21/01:30pm 21.1 18.1 12.0 56 5.1 NE 19 24 10 13 1018.0 1018.0 0.0
21/01:00pm 20.5 17.5 12.0 58 4.7 ENE 19 22 10 12 1017.9 1017.9 0.0
21/12:30pm 19.2 17.5 11.3 60 4.3 SE 11 13 6 7 1018.3 1018.3 0.0
21/12:00pm 18.8 17.2 11.6 63 3.9 SE 11 15 6 8 1018.4 1018.4 0.0
21/11:30am 18.5 16.6 11.8 65 3.7 ESE 13 17 7 9 1018.4 1018.4 0.0
21/11:00am 18.7 16.4 11.8 64 3.8 SSE 15 19 8 10 1018.6 1018.6 0.0
21/10:30am 17.8 14.9 11.1 65 3.6 SSE 17 20 9 11 1018.5 1018.5 0.0
21/10:00am 17.5 14.3 11.1 66 3.5 SSE 19 20 10 11 1018.4 1018.4 0.0
21/09:30am 17.0 13.9 11.7 71 2.9 SSE 19 22 10 12 1018.1 1018.1 0.0
21/09:00am 16.0 13.9 12.4 79 2.0 SSW 15 17 8 9 1017.6 1017.6 2.2
21/08:30am 14.7 12.3 11.3 80 1.8 SSW 15 15 8 8 1017.2 1017.2 2.2
21/08:00am 14.0 11.9 11.0 82 1.6 SSW 13 15 7 8 1016.9 1016.9 2.2
21/07:30am 12.9 10.8 11.0 88 1.0 SSW 13 15 7 8 1016.6 1016.6 2.2
21/07:00am 12.2 9.9 10.3 88 1.0 SSW 13 15 7 8 1015.9 1015.9 2.2
21/06:30am 12.8 11.7 10.7 87 1.1 S 7 11 4 6 1015.4 1015.4 2.2
21/06:00am 13.0 11.7 9.3 78 1.9 SSW 6 7 3 4 1015.1 1015.1 2.2
21/05:30am 12.2 10.6 8.9 80 1.7 SW 7 7 4 4 1014.9 1014.9 2.2
21/05:00am 13.0 12.1 10.7 86 1.2 SSW 6 7 3 4 1014.4 1014.4 2.2
21/04:30am 13.0 11.8 10.2 83 1.4 SSW 7 7 4 4 1014.2 1014.2 2.2
21/04:00am 13.3 13.4 10.1 81 1.7 CALM 0 0 0 0 1013.9 1013.9 2.2
21/03:30am 13.2 12.1 10.6 84 1.4 SSW 7 9 4 5 1013.7 1013.7 2.2
21/03:00am 13.1 10.6 9.7 80 1.7 S 13 15 7 8 1013.5 1013.5 2.2
21/02:30am 13.2 11.1 9.8 80 1.7 S 11 15 6 8 1013.0 1013.0 2.2
21/02:00am 13.5 10.7 10.1 80 1.8 SSE 15 17 8 9 1013.1 1013.1 2.2
21/01:30am 13.6 10.3 10.8 83 1.5 SSE 19 22 10 12 1013.2 1013.2 2.2
21/01:00am 13.5 12.3 11.6 88 1.0 S 9 20 5 11 1013.2 1013.2 2.2
21/12:30am 13.8 11.9 11.8 88 1.1 SSW 13 17 7 9 1013.1 1013.1 2.2
21/12:00am 14.1 12.3 12.1 88 1.1 SSW 13 15 7 8 1012.8 1012.8 2.2
 
Date/Time
EDT
Temp
°C
App
Temp
°C
Dew
Point
°C
Rel
Hum
%
Delta-T
°C
Wind Press
QNH
hPa
Press
MSL
hPa
Rain since
9am
mm
Dir  Spd
km/h
Gust
km/h
Spd
kts
Gust
kts
20/11:30pm 13.8 11.8 11.5 86 1.2 SSW 13 15 7 8 1012.5 1012.5 2.2
20/11:00pm 14.1 13.3 11.1 82 1.6 W 6 7 3 4 1012.0 1012.0 2.2
20/10:30pm 13.8 12.6 10.2 79 1.9 NW 7 7 4 4 1011.7 1011.7 2.2
20/10:00pm 14.2 13.1 10.6 79 1.9 NNW 7 9 4 5 1011.4 1011.4 2.2
20/09:30pm 13.8 12.7 10.8 82 1.6 NW 7 9 4 5 1011.1 1011.1 2.2
20/09:00pm 13.9 12.8 11.9 88 1.1 NNW 9 11 5 6 1010.6 1010.6 2.2
20/08:30pm 13.9 14.3 11.1 83 1.5 CALM 0 0 0 0 1010.1 1010.1 2.2
20/08:00pm 14.0 12.9 12.0 88 1.1 NW 9 15 5 8 1009.8 1009.8 2.2
20/07:30pm 14.4 13.9 12.6 89 1.0 W 7 9 4 5 1009.4 1009.4 2.2
20/07:00pm 14.6 13.4 12.8 89 1.0 WNW 11 13 6 7 1009.0 1009.0 2.2
20/06:30pm 14.7 13.8 12.6 87 1.1 WNW 9 11 5 6 1008.5 1008.5 2.2
20/06:00pm 14.5 13.4 11.8 84 1.5 W 9 11 5 6 1007.9 1007.9 2.2
20/05:30pm 14.4 12.5 11.7 84 1.5 WSW 13 17 7 9 1007.7 1007.7 2.2
20/05:00pm 14.1 10.8 10.9 81 1.7 S 19 43 10 23 1007.5 1007.5 1.8
20/04:51pm 15.0 11.3 11.6 80 1.8 SW 22 43 12 23 1007.4 1007.4 1.0
20/04:30pm 17.0 14.4 9.2 60 4.1 NNW 13 19 7 10 1006.7 1006.7 0.0
20/04:00pm 17.0 14.8 7.9 55 4.6 W 9 13 5 7 1006.6 1006.6 0.0
20/03:30pm 17.7 15.2 8.0 53 4.9 WSW 11 17 6 9 1006.5 1006.5 0.0
20/03:00pm 17.8 15.4 10.2 61 4.1 SW 13 17 7 9 1006.6 1006.6 0.0
20/02:30pm 16.7 13.3 10.5 67 3.3 SSW 19 22 10 12 1006.4 1006.4 0.0
20/02:00pm 16.3 10.8 9.0 62 3.8 SSW 28 32 15 17 1006.0 1006.0 0.0
20/01:30pm 16.5 10.0 10.4 67 3.2 S 35 41 19 22 1005.8 1005.8 0.0
20/01:00pm 17.7 10.5 10.6 63 3.8 S 39 46 21 25 1005.7 1005.7 0.0
20/12:30pm 16.9 9.4 10.7 67 3.3 S 41 46 22 25 1005.8 1005.8 0.0
20/12:00pm 16.9 10.5 9.3 61 4.0 S 33 39 18 21 1005.8 1005.8 0.0
20/11:30am 16.8 10.2 10.0 64 3.6 S 35 41 19 22 1005.8 1005.8 0.0
20/11:00am 16.5 10.4 10.6 68 3.2 S 33 41 18 22 1005.7 1005.7 0.0
20/10:30am 15.4 9.2 10.2 71 2.7 S 33 41 18 22 1005.7 1005.7 0.0
20/10:00am 15.1 8.7 9.5 69 2.9 S 33 37 18 20 1005.5 1005.5 0.0
20/09:30am 15.0 9.2 9.6 70 2.8 SSW 30 33 16 18 1005.5 1005.5 0.0
20/09:00am 13.8 8.6 9.0 73 2.4 S 26 32 14 17 1005.6 1005.6 3.2
20/08:30am 13.6 9.6 9.1 74 2.3 SSW 20 26 11 14 1005.5 1005.5 3.2
20/08:00am 13.3 9.0 9.4 77 2.0 S 22 26 12 14 1005.3 1005.3 3.2
20/07:30am 12.6 8.5 8.7 77 1.9 SSW 20 26 11 14 1005.3 1005.3 3.2
20/07:00am 12.4 8.2 8.3 76 2.0 S 20 26 11 14 1005.2 1005.1 3.2

Other Formats:

Comma delimited format used in spreadsheet applications
http://www.bom.gov.au/fwo/IDT60801/IDT60801.94983.axf

JavaScript Object Notation format (JSON) in row-major order
http://www.bom.gov.au/fwo/IDT60801/IDT60801.94983.json